createdAt,value
2018-02-04T00:02:19.910Z,7.65
2018-02-04T00:04:46.244Z,8.80
2018-02-04T00:07:12.594Z,12.48
2018-02-04T00:09:38.938Z,13.43
2018-02-04T00:12:05.252Z,10.70
2018-02-04T00:14:31.640Z,8.65
2018-02-04T00:16:57.963Z,9.82
2018-02-04T00:19:24.323Z,17.77
2018-02-04T00:21:51.426Z,10.95
2018-02-04T00:24:17.759Z,12.82
2018-02-04T00:26:44.091Z,11.12
2018-02-04T00:29:10.442Z,11.95
2018-02-04T00:31:37.378Z,11.23
2018-02-04T00:34:03.730Z,16.77
2018-02-04T00:36:30.052Z,10.25
2018-02-04T00:38:56.365Z,11.10
2018-02-04T00:41:22.710Z,10.48
2018-02-04T00:43:49.044Z,8.80
2018-02-04T00:46:16.098Z,11.07
2018-02-04T00:48:42.650Z,22.70
2018-02-04T00:51:09.705Z,14.32
2018-02-04T00:53:36.801Z,20.30
2018-02-04T00:56:03.134Z,12.77
2018-02-04T00:58:29.491Z,11.80
2018-02-04T01:00:55.802Z,12.32
2018-02-04T01:03:22.165Z,11.35
2018-02-04T01:05:49.258Z,10.32
2018-02-04T01:08:15.575Z,10.23
2018-02-04T01:10:41.933Z,11.27
2018-02-04T01:13:09.287Z,12.27
2018-02-04T01:15:35.643Z,12.75
2018-02-04T01:18:01.969Z,10.02
2018-02-04T01:20:28.292Z,11.73
2018-02-04T01:22:54.610Z,12.85
2018-02-04T01:25:20.966Z,10.10
2018-02-04T01:27:47.310Z,10.75
2018-02-04T01:30:13.678Z,12.88
2018-02-04T01:32:40.740Z,11.82
2018-02-04T01:35:07.081Z,11.80
2018-02-04T01:37:34.447Z,12.25
2018-02-04T01:40:00.771Z,13.18
2018-02-04T01:42:27.134Z,14.57
2018-02-04T01:44:53.480Z,11.50
2018-02-04T01:47:20.805Z,11.15
2018-02-04T01:49:48.136Z,11.63
2018-02-04T01:52:14.486Z,13.45
2018-02-04T01:54:40.799Z,12.45
2018-02-04T01:57:07.103Z,12.70
2018-02-04T01:59:34.172Z,12.32
2018-02-04T02:02:00.507Z,14.80
2018-02-04T02:04:26.861Z,12.63
2018-02-04T02:06:53.194Z,14.35
2018-02-04T02:09:19.542Z,12.98
2018-02-04T02:11:45.850Z,12.55
2018-02-04T02:14:12.160Z,11.52
2018-02-04T02:16:38.503Z,11.80
2018-02-04T02:19:04.854Z,10.88
2018-02-04T02:21:31.195Z,10.82
2018-02-04T02:23:57.527Z,12.48
2018-02-04T02:26:23.905Z,8.77
2018-02-04T02:28:50.311Z,14.82
2018-02-04T02:31:17.410Z,13.70
2018-02-04T02:33:43.752Z,10.55
2018-02-04T02:36:10.095Z,13.10
2018-02-04T02:38:37.227Z,11.55
2018-02-04T02:41:03.574Z,8.98
2018-02-04T02:43:29.907Z,11.73
2018-02-04T02:45:57.267Z,9.98
2018-02-04T02:48:24.614Z,11.75
2018-02-04T02:50:51.963Z,14.02
2018-02-04T02:53:18.317Z,11.50
2018-02-04T02:55:44.664Z,16.85
2018-02-04T02:58:11.723Z,14.00
2018-02-04T03:00:38.054Z,11.73
2018-02-04T03:03:05.124Z,15.15
2018-02-04T03:05:32.467Z,14.27
2018-02-04T03:07:58.805Z,18.02
2018-02-04T03:10:25.166Z,13.35
2018-02-04T03:12:51.498Z,15.10
2018-02-04T03:15:17.846Z,15.88
2018-02-04T03:17:44.163Z,16.45
2018-02-04T03:20:11.519Z,16.62
2018-02-04T03:22:37.840Z,17.08
2018-02-04T03:25:04.186Z,14.80
2018-02-04T03:27:30.506Z,14.25
2018-02-04T03:29:56.860Z,14.52
2018-02-04T03:32:23.194Z,13.05
2018-02-04T03:34:49.498Z,12.60
2018-02-04T03:37:15.843Z,15.93
2018-02-04T03:39:42.180Z,14.93
2018-02-04T03:42:08.487Z,14.52
2018-02-04T03:44:34.817Z,15.43
2018-02-04T03:47:01.175Z,16.60
2018-02-04T03:49:28.355Z,12.10
2018-02-04T03:51:55.668Z,12.77
2018-02-04T03:54:22.004Z,14.70
2018-02-04T03:56:48.622Z,12.20
2018-02-04T03:59:15.010Z,16.77
2018-02-04T04:01:41.334Z,18.83
2018-02-04T04:04:08.395Z,13.88
2018-02-04T04:06:34.743Z,12.35
2018-02-04T04:09:01.090Z,14.77
2018-02-04T04:11:27.414Z,13.55
2018-02-04T04:13:53.747Z,13.57
2018-02-04T04:16:20.060Z,16.83
2018-02-04T04:18:46.379Z,13.65
2018-02-04T04:21:12.714Z,13.90
2018-02-04T04:23:39.082Z,13.52
2018-02-04T04:26:05.397Z,15.02
2018-02-04T04:28:31.727Z,17.40
2018-02-04T04:30:58.031Z,17.27
2018-02-04T04:33:24.361Z,14.35
2018-02-04T04:35:51.450Z,14.30
2018-02-04T04:38:17.783Z,13.07
2018-02-04T04:40:44.696Z,13.10
2018-02-04T04:43:11.030Z,11.50
2018-02-04T04:45:37.622Z,16.58
2018-02-04T04:48:03.925Z,13.43
2018-02-04T04:50:30.286Z,11.23
2018-02-04T04:52:56.622Z,13.60
2018-02-04T04:55:22.935Z,14.60
2018-02-04T04:57:49.282Z,14.20
2018-02-04T05:00:16.396Z,14.30
2018-02-04T05:02:42.722Z,13.95
2018-02-04T05:05:09.041Z,16.48
2018-02-04T05:07:35.458Z,14.27
2018-02-04T05:10:01.783Z,15.77
2018-02-04T05:12:28.838Z,13.65
2018-02-04T05:14:55.705Z,16.37
2018-02-04T05:17:22.059Z,15.52
2018-02-04T05:19:48.402Z,13.27
2018-02-04T05:22:15.731Z,15.35
2018-02-04T05:24:42.055Z,13.80
2018-02-04T05:27:10.011Z,16.87
2018-02-04T05:29:36.326Z,19.92
2018-02-04T05:32:02.655Z,13.25
2018-02-04T05:34:28.986Z,16.37
2018-02-04T05:36:56.043Z,16.40
2018-02-04T05:39:22.366Z,14.98
2018-02-04T05:41:49.454Z,14.48
2018-02-04T05:44:15.982Z,14.57
2018-02-04T05:46:42.331Z,17.15
2018-02-04T05:49:08.664Z,15.50
2018-02-04T05:51:34.974Z,15.95
2018-02-04T05:54:01.291Z,15.30
2018-02-04T05:56:27.610Z,15.70
2018-02-04T05:58:54.683Z,15.60
2018-02-04T06:01:21.012Z,17.08
2018-02-04T06:03:47.337Z,15.90
2018-02-04T06:06:13.682Z,15.90
2018-02-04T06:08:39.994Z,17.15
2018-02-04T06:11:06.322Z,20.20
2018-02-04T06:13:32.639Z,20.35
2018-02-04T06:15:59.732Z,15.73
2018-02-04T06:18:26.051Z,16.60
2018-02-04T06:20:52.426Z,17.75
2018-02-04T06:23:20.854Z,19.33
2018-02-04T06:25:47.206Z,18.58
2018-02-04T06:28:13.576Z,24.87
2018-02-04T06:30:40.655Z,18.40
2018-02-04T06:33:07.015Z,17.80
2018-02-04T06:35:33.366Z,19.55
2018-02-04T06:37:59.675Z,20.80
2018-02-04T06:40:25.982Z,20.12
2018-02-04T06:42:52.312Z,20.50
2018-02-04T06:45:18.632Z,19.15
2018-02-04T06:47:45.690Z,20.55
2018-02-04T06:50:12.031Z,19.37
2018-02-04T06:52:38.351Z,20.35
2018-02-04T06:55:04.674Z,17.48
2018-02-04T06:57:31.010Z,22.50
2018-02-04T06:59:58.313Z,17.20
2018-02-04T07:02:24.693Z,18.00
2018-02-04T07:04:51.040Z,20.30
2018-02-04T07:07:17.342Z,20.58
2018-02-04T07:09:44.412Z,20.48
2018-02-04T07:12:10.731Z,21.55
2018-02-04T07:14:37.782Z,19.73
2018-02-04T07:17:04.102Z,20.80
2018-02-04T07:19:31.186Z,22.92
2018-02-04T07:21:57.559Z,21.85
2018-02-04T07:24:23.890Z,18.23
2018-02-04T07:26:50.223Z,20.80
2018-02-04T07:29:17.570Z,18.48
2018-02-04T07:31:44.938Z,19.67
2018-02-04T07:34:11.256Z,16.48
2018-02-04T07:36:37.582Z,21.83
2018-02-04T07:39:03.967Z,19.62
2018-02-04T07:41:30.286Z,17.50
2018-02-04T07:43:56.607Z,19.02
2018-02-04T07:46:23.695Z,16.90
2018-02-04T07:48:50.042Z,18.67
2018-02-04T07:51:16.347Z,18.05
2018-02-04T07:53:42.658Z,19.23
2018-02-04T07:56:08.978Z,15.75
2018-02-04T07:58:36.036Z,28.95
2018-02-04T08:01:02.358Z,18.67
2018-02-04T08:03:29.457Z,18.90
2018-02-04T08:05:55.767Z,26.70
2018-02-04T08:08:22.077Z,17.77
2018-02-04T08:10:48.387Z,21.23
2018-02-04T08:13:16.452Z,17.15
2018-02-04T08:15:43.519Z,19.25
2018-02-04T08:18:10.594Z,22.25
2018-02-04T08:20:37.930Z,18.58
2018-02-04T08:23:04.243Z,18.23
2018-02-04T08:25:31.338Z,19.20
2018-02-04T08:27:58.178Z,19.27
2018-02-04T08:30:24.497Z,17.00
2018-02-04T08:32:50.835Z,16.48
2018-02-04T08:35:17.144Z,18.20
2018-02-04T08:37:43.502Z,23.08
2018-02-04T08:40:09.842Z,23.05
2018-02-04T08:42:36.172Z,17.62
2018-02-04T08:45:02.519Z,19.85
2018-02-04T08:47:28.826Z,15.50
2018-02-04T08:49:55.147Z,15.32
2018-02-04T08:52:21.482Z,18.37
2018-02-04T08:54:47.849Z,23.48
2018-02-04T08:57:14.194Z,19.48
2018-02-04T08:59:41.274Z,19.83
2018-02-04T09:02:07.590Z,16.70
2018-02-04T09:04:34.664Z,15.55
2018-02-04T09:07:00.977Z,15.35
2018-02-04T09:09:27.338Z,11.65
2018-02-04T09:11:53.656Z,14.25
2018-02-04T09:14:19.974Z,15.40
2018-02-04T09:16:46.303Z,14.43
2018-02-04T09:19:12.652Z,13.05
2018-02-04T09:21:38.990Z,13.65
2018-02-04T09:24:05.374Z,18.42
2018-02-04T09:26:32.443Z,45.30
2018-02-04T09:28:58.766Z,21.90
2018-02-04T09:31:25.814Z,16.60
2018-02-04T09:33:52.123Z,17.12
2018-02-04T09:36:19.201Z,15.75
2018-02-04T09:38:45.515Z,16.42
2018-02-04T09:41:12.598Z,12.65
2018-02-04T09:43:38.925Z,14.50
2018-02-04T09:46:05.246Z,14.82
2018-02-04T09:48:32.617Z,13.77
2018-02-04T09:50:58.944Z,12.88
2018-02-04T09:53:25.271Z,11.30
2018-02-04T09:55:51.588Z,10.40
2018-02-04T09:58:17.976Z,11.30
2018-02-04T10:00:45.064Z,10.57
2018-02-04T10:03:11.377Z,11.18
2018-02-04T10:05:38.434Z,16.00
2018-02-04T10:08:05.486Z,13.25
2018-02-04T10:10:32.571Z,10.80
2018-02-04T10:12:58.903Z,10.32
2018-02-04T10:15:25.229Z,10.75
2018-02-04T10:17:51.541Z,10.35
2018-02-04T10:20:17.850Z,9.05
2018-02-04T10:22:44.911Z,9.25
2018-02-04T10:25:11.328Z,15.30
2018-02-04T10:27:38.496Z,11.52
2018-02-04T10:30:04.890Z,17.27
2018-02-04T10:32:32.678Z,10.15
2018-02-04T10:34:59.774Z,9.73
2018-02-04T10:37:26.243Z,10.15
2018-02-04T10:39:54.075Z,8.95
2018-02-04T10:42:20.395Z,8.75
2018-02-04T10:44:47.470Z,9.73
2018-02-04T10:47:13.799Z,10.70
2018-02-04T10:49:40.142Z,13.88
2018-02-04T10:52:06.490Z,13.70
2018-02-04T10:54:35.363Z,12.63
2018-02-04T10:57:01.704Z,10.07
2018-02-04T10:59:28.066Z,12.68
2018-02-04T11:01:54.413Z,9.85
2018-02-04T11:04:20.743Z,11.35
2018-02-04T11:06:47.077Z,9.13
2018-02-04T11:09:13.423Z,7.05
2018-02-04T11:11:40.104Z,4.90
2018-02-04T11:14:07.180Z,4.07
2018-02-04T11:16:34.501Z,7.40
2018-02-04T11:19:01.594Z,6.28
2018-02-04T11:21:27.987Z,5.68
2018-02-04T11:23:56.059Z,4.78
2018-02-04T11:26:23.160Z,4.18
2018-02-04T11:28:49.977Z,4.78
2018-02-04T11:31:18.022Z,4.85
2018-02-04T11:33:48.875Z,5.78
2018-02-04T11:36:15.431Z,5.93
2018-02-04T11:38:41.756Z,7.57
2018-02-04T11:41:08.122Z,7.62
2018-02-04T11:43:35.051Z,9.35
2018-02-04T11:46:01.360Z,8.38
2018-02-04T11:48:27.719Z,7.90
2018-02-04T11:50:54.053Z,7.93
2018-02-04T11:53:20.407Z,7.72
2018-02-04T11:55:46.750Z,8.43
2018-02-04T11:58:13.820Z,6.70
2018-02-04T12:00:40.931Z,6.35
2018-02-04T12:03:07.292Z,6.62
2018-02-04T12:05:34.355Z,8.30
2018-02-04T12:08:00.696Z,10.70
2018-02-04T12:10:27.670Z,15.88
2018-02-04T12:12:54.002Z,7.12
2018-02-04T12:15:20.341Z,6.68
2018-02-04T12:17:46.651Z,8.15
2018-02-04T12:20:12.995Z,10.38
2018-02-04T12:22:39.317Z,8.90
2018-02-04T12:25:05.651Z,8.15
2018-02-04T12:27:31.971Z,8.55
2018-02-04T12:29:59.326Z,7.00
2018-02-04T12:32:25.661Z,7.75
2018-02-04T12:34:51.978Z,8.77
2018-02-04T12:37:18.290Z,7.47
2018-02-04T12:39:45.606Z,8.77
2018-02-04T12:42:12.910Z,8.95
2018-02-04T12:44:39.226Z,9.10
2018-02-04T12:47:06.302Z,11.43
2018-02-04T12:49:32.606Z,12.00
2018-02-04T12:51:59.700Z,10.90
2018-02-04T12:54:26.027Z,10.43
2018-02-04T12:56:52.873Z,11.27
2018-02-04T12:59:19.208Z,8.95
2018-02-04T13:01:45.492Z,11.10
2018-02-04T13:04:11.782Z,13.98
2018-02-04T13:06:38.062Z,12.55
2018-02-04T13:09:04.367Z,13.70
2018-02-04T13:11:31.985Z,11.32
2018-02-04T13:14:02.620Z,7.65
2018-02-04T13:16:30.050Z,7.85
2018-02-04T13:18:56.350Z,8.13
2018-02-04T13:21:24.352Z,9.38
2018-02-04T13:23:50.675Z,13.27
2018-02-04T13:26:19.234Z,8.25
2018-02-04T13:28:47.175Z,7.60
2018-02-04T13:31:14.191Z,8.40
2018-02-04T13:33:40.485Z,6.70
2018-02-04T13:36:06.755Z,4.78
2018-02-04T13:38:33.192Z,3.87
2018-02-04T13:40:59.487Z,4.32
2018-02-04T13:43:25.819Z,5.28
2018-02-04T13:45:52.106Z,8.07
2018-02-04T13:48:19.162Z,36.80
2018-02-04T13:50:46.180Z,9.52
2018-02-04T13:53:12.454Z,13.65
2018-02-04T13:55:38.777Z,6.43
2018-02-04T13:58:05.089Z,10.27
2018-02-04T14:00:32.126Z,8.40
2018-02-04T14:02:58.407Z,8.95
2018-02-04T14:05:24.704Z,12.88
2018-02-04T14:07:51.733Z,14.87
2018-02-04T14:10:18.072Z,18.83
2018-02-04T14:12:45.135Z,4.35
2018-02-04T14:15:12.150Z,5.12
2018-02-04T14:17:38.447Z,4.72
2018-02-04T14:20:04.764Z,9.75
2018-02-04T14:22:31.078Z,4.03
2018-02-04T14:24:57.418Z,3.37
2018-02-04T14:27:23.698Z,5.47
2018-02-04T14:29:51.528Z,5.80
2018-02-04T14:32:17.845Z,4.95
2018-02-04T14:34:47.060Z,5.50
2018-02-04T14:37:13.392Z,4.10
2018-02-04T14:39:39.684Z,3.58
2018-02-04T14:42:06.746Z,3.30
2018-02-04T14:44:33.061Z,3.10
2018-02-04T14:47:00.094Z,3.50
2018-02-04T14:49:26.392Z,2.80
2018-02-04T14:51:52.659Z,7.00
2018-02-04T14:54:18.954Z,2.20
2018-02-04T14:56:45.241Z,2.43
2018-02-04T14:59:12.266Z,85.87
2018-02-04T15:01:38.555Z,3.00
2018-02-04T15:04:04.839Z,2.77
2018-02-04T15:06:31.885Z,3.60
2018-02-04T15:08:58.951Z,2.40
2018-02-04T15:11:25.283Z,4.40
2018-02-04T15:13:51.562Z,7.00
2018-02-04T15:16:17.842Z,3.27
2018-02-04T15:18:44.113Z,3.00
2018-02-04T15:21:10.398Z,2.10
2018-02-04T15:23:36.679Z,2.53
2018-02-04T15:26:03.019Z,2.53
2018-02-04T15:28:29.330Z,4.00
2018-02-04T15:30:55.606Z,4.65
2018-02-04T15:33:23.670Z,3.10
2018-02-04T15:35:49.953Z,4.90
2018-02-04T15:38:17.301Z,3.80
2018-02-04T15:40:43.589Z,3.40
2018-02-04T15:43:10.619Z,3.20
2018-02-04T15:45:36.922Z,3.62
2018-02-04T15:48:03.222Z,6.50
2018-02-04T15:50:29.519Z,10.27
2018-02-04T15:52:55.818Z,16.15
2018-02-04T15:55:22.101Z,10.80
2018-02-04T15:57:49.114Z,11.95
2018-02-04T16:00:15.443Z,17.77
2018-02-04T16:02:41.719Z,8.57
2018-02-04T16:05:08.003Z,42.05
2018-02-04T16:07:34.329Z,10.85
2018-02-04T16:10:00.643Z,6.70
2018-02-04T16:12:26.930Z,10.90
2018-02-04T16:14:53.213Z,8.13
2018-02-04T16:17:19.495Z,11.65
2018-02-04T16:19:46.518Z,11.85
2018-02-04T16:22:12.852Z,12.75
2018-02-04T16:24:39.890Z,12.70
2018-02-04T16:27:06.169Z,13.00
2018-02-04T16:29:32.459Z,10.35
2018-02-04T16:31:58.733Z,10.27
2018-02-04T16:34:25.011Z,8.77
2018-02-04T16:36:52.806Z,11.75
2018-02-04T16:39:19.842Z,12.60
2018-02-04T16:41:46.877Z,8.55
2018-02-04T16:44:13.159Z,11.12
2018-02-04T16:46:39.440Z,8.25
2018-02-04T16:49:06.515Z,8.85
2018-02-04T16:51:32.794Z,8.02
2018-02-04T16:53:59.110Z,10.90
2018-02-04T16:56:30.353Z,10.77
2018-02-04T16:58:57.654Z,42.22
2018-02-04T17:01:24.702Z,31.33
2018-02-04T17:03:51.719Z,26.37
2018-02-04T17:06:18.111Z,26.77
2018-02-04T17:08:44.392Z,18.60
2018-02-04T17:11:10.669Z,21.95
2018-02-04T17:13:36.946Z,38.28
2018-02-04T17:16:04.238Z,19.25
2018-02-04T17:18:31.250Z,21.55
2018-02-04T17:20:57.538Z,14.87
2018-02-04T17:23:23.846Z,14.25
2018-02-04T17:25:50.870Z,12.15
2018-02-04T17:28:17.915Z,16.70
2018-02-04T17:30:44.232Z,14.98
2018-02-04T17:33:10.546Z,16.52
2018-02-04T17:35:36.878Z,23.30
2018-02-04T17:38:03.158Z,13.98
2018-02-04T17:40:30.211Z,16.37
2018-02-04T17:42:56.517Z,17.73
2018-02-04T17:45:23.539Z,17.58
2018-02-04T17:47:49.889Z,16.65
2018-02-04T17:50:17.740Z,17.48
2018-02-04T17:52:44.050Z,15.43
2018-02-04T17:55:10.322Z,20.60
2018-02-04T17:57:38.370Z,20.55
2018-02-04T18:00:04.730Z,17.45
2018-02-04T18:02:31.740Z,17.20
2018-02-04T18:04:58.023Z,17.87
2018-02-04T18:07:24.315Z,21.80
2018-02-04T18:09:50.600Z,20.12
2018-02-04T18:12:16.887Z,15.15
2018-02-04T18:14:43.175Z,19.55
2018-02-04T18:17:09.501Z,17.15
2018-02-04T18:19:35.763Z,16.67
2018-02-04T18:22:02.247Z,22.02
2018-02-04T18:24:28.539Z,26.27
2018-02-04T18:26:54.901Z,29.05
2018-02-04T18:29:21.205Z,23.40
2018-02-04T18:31:47.553Z,27.48
2018-02-04T18:34:14.669Z,23.45
2018-02-04T18:36:42.377Z,19.08
2018-02-04T18:39:09.676Z,21.10
2018-02-04T18:41:35.953Z,17.62
2018-02-04T18:44:02.296Z,18.85
2018-02-04T18:46:29.325Z,19.90
2018-02-04T18:48:56.342Z,17.27
2018-02-04T18:51:23.670Z,21.45
2018-02-04T18:53:49.980Z,19.05
2018-02-04T18:56:16.259Z,30.42
2018-02-04T18:58:42.563Z,23.17
2018-02-04T19:01:08.843Z,21.75
2018-02-04T19:03:35.888Z,26.45
2018-02-04T19:06:02.919Z,22.42
2018-02-04T19:08:29.194Z,19.85
2018-02-04T19:10:55.586Z,20.45
2018-02-04T19:13:22.627Z,18.30
2018-02-04T19:15:48.922Z,22.02
2018-02-04T19:18:15.763Z,19.50
2018-02-04T19:20:42.045Z,18.98
2018-02-04T19:23:09.054Z,20.27
2018-02-04T19:25:35.328Z,20.45
2018-02-04T19:28:01.692Z,22.70
2018-02-04T19:30:27.967Z,18.23
2018-02-04T19:32:54.251Z,20.52
2018-02-04T19:35:20.551Z,26.02
2018-02-04T19:37:47.655Z,23.80
2018-02-04T19:40:14.618Z,22.62
2018-02-04T19:42:41.688Z,19.40
2018-02-04T19:45:08.717Z,22.98
2018-02-04T19:47:35.003Z,23.38
2018-02-04T19:50:01.295Z,29.50
2018-02-04T19:52:28.432Z,26.48
2018-02-04T19:54:55.469Z,25.67
2018-02-04T19:57:21.756Z,22.42
2018-02-04T19:59:48.026Z,28.52
2018-02-04T20:02:14.302Z,27.75
2018-02-04T20:04:40.634Z,22.08
2018-02-04T20:07:06.927Z,20.02
2018-02-04T20:09:33.238Z,22.70
2018-02-04T20:11:59.512Z,26.02
2018-02-04T20:14:28.223Z,21.55
2018-02-04T20:16:54.513Z,21.02
2018-02-04T20:19:20.998Z,19.45
2018-02-04T20:21:48.173Z,24.25
2018-02-04T20:24:14.542Z,25.42
2018-02-04T20:26:41.780Z,27.10
2018-02-04T20:29:08.083Z,31.33
2018-02-04T20:31:35.442Z,28.40
2018-02-04T20:34:14.210Z,29.90
2018-02-04T20:36:40.530Z,32.08
2018-02-04T20:39:07.546Z,26.33
2018-02-04T20:41:33.830Z,28.60
2018-02-04T20:44:06.849Z,30.25
2018-02-04T20:46:33.190Z,30.35
2018-02-04T20:49:00.210Z,38.08
2018-02-04T20:51:26.555Z,32.95
2018-02-04T20:53:52.906Z,36.17
2018-02-04T20:56:19.190Z,36.85
2018-02-04T20:58:45.498Z,47.90
2018-02-04T21:01:11.784Z,40.12
2018-02-04T21:03:40.203Z,53.38
2018-02-04T21:06:06.490Z,59.40
2018-02-04T21:08:32.825Z,77.50
2018-02-04T21:10:59.167Z,64.80
2018-02-04T21:13:25.462Z,74.93
2018-02-04T21:15:51.738Z,64.65
2018-02-04T21:18:18.835Z,60.90
2018-02-04T21:20:46.155Z,57.35
2018-02-04T21:23:13.171Z,112.62
2018-02-04T21:25:39.478Z,68.45
2018-02-04T21:28:05.766Z,72.07
2018-02-04T21:30:32.828Z,100.55
2018-02-04T21:32:59.859Z,71.53
2018-02-04T21:35:27.177Z,96.22
2018-02-04T21:37:53.459Z,63.22
2018-02-04T21:40:26.204Z,63.30
2018-02-04T21:42:52.475Z,60.45
2018-02-04T21:45:18.978Z,69.57
2018-02-04T21:47:54.391Z,65.50
2018-02-04T21:50:28.843Z,71.90
2018-02-04T21:52:56.122Z,58.63
2018-02-04T21:55:23.167Z,58.67
2018-02-04T21:57:51.055Z,70.50
2018-02-04T22:00:18.397Z,52.20
2018-02-04T22:02:47.693Z,61.83
2018-02-04T22:05:14.727Z,87.35
2018-02-04T22:07:41.015Z,65.65
2018-02-04T22:10:07.306Z,93.20
2018-02-04T22:15:11.051Z,79.93
2018-02-04T22:17:45.854Z,123.18
2018-02-04T22:20:13.224Z,239.18
2018-02-04T22:22:39.494Z,102.62
2018-02-04T22:25:05.777Z,75.07
2018-02-04T22:27:32.067Z,76.47
2018-02-04T22:29:58.347Z,68.87
2018-02-04T22:32:25.401Z,85.85
2018-02-04T22:34:52.414Z,58.47
2018-02-04T22:37:18.714Z,68.28
2018-02-04T22:39:44.995Z,73.65
2018-02-04T22:42:11.269Z,62.95
2018-02-04T22:44:37.548Z,70.82
2018-02-04T22:47:03.841Z,56.90
2018-02-04T22:49:30.182Z,54.85
2018-02-04T22:51:56.495Z,53.53
2018-02-04T22:54:22.811Z,51.88
2018-02-04T22:56:49.110Z,58.80
2018-02-04T22:59:15.598Z,62.40
2018-02-04T23:01:43.118Z,65.78
2018-02-04T23:04:10.275Z,63.28
2018-02-04T23:06:37.330Z,64.62
2018-02-04T23:09:04.398Z,64.45
2018-02-04T23:11:30.682Z,59.80
2018-02-04T23:13:57.175Z,57.42
2018-02-04T23:16:23.442Z,52.62
2018-02-04T23:18:49.730Z,55.42
2018-02-04T23:21:16.047Z,53.85
2018-02-04T23:23:42.350Z,43.25
2018-02-04T23:26:09.401Z,45.83
2018-02-04T23:28:36.425Z,45.45
2018-02-04T23:31:02.754Z,41.22
2018-02-04T23:33:29.063Z,36.42
2018-02-04T23:35:55.332Z,44.90
2018-02-04T23:38:23.448Z,37.20
2018-02-04T23:40:49.756Z,46.53
2018-02-04T23:43:16.798Z,65.37
2018-02-04T23:45:43.847Z,45.97
2018-02-04T23:48:10.908Z,42.70
2018-02-04T23:50:37.190Z,49.88
2018-02-04T23:53:03.526Z,57.05
2018-02-04T23:55:29.803Z,54.58
2018-02-04T23:57:58.334Z,59.20
